logo
Search for airport 
image banner adimage banner adimage banner ad
image banner ad

WPDB - Xanana Gusmao International Airport Suai

Located in Suai, Timor-Leste

ICAO - WPDB, IATA - UAI

Data provided by Airmate  

General information

Coordinates: S9°17'43" E125°17'6"
Elevation is 120 feet MSL.
 
View others Airports in Cova Lima

Operational data

Special qualification required
Current time UTC:
Current local time:
Weather at : - ( 0 km )
METAR: YBLN 220840Z AUTO 15019G29KT 9999 // SCT057 18/04 Q1027 RF00.0/000.0
View NOTAMs / SUP AIP / TFR affecting this airport [VIEW]
Communications frequencies: [VIEW]

Runways:

RWY identifierQFULength (ft)Width (ft)SurfaceLDA (ft)
17492198UNK
35492198UNK

Airport contact information

Address: Suai Timor-Leste

Satellite view of WPDB